METAR Data
IDs: Format: Raw Decoded Include TAF

Data at: 0648 UTC 11 Dec 2018

PAMO 110644Z AUTO 33021KT 2SM -SN BR OVC027 M08/M09 A2879 RMK AO2 PK WND 33026/0623 P0000 FZRANO
PAMO 110613Z AUTO 33023KT 2SM -SN BR BKN025 OVC031 M09/M09 A2878 RMK AO2 PK WND 33026/0613 P0000 FZRANO
PAMO 110602Z AUTO 33023G27KT 1 3/4SM -SN BR BKN023 OVC031 M09/M09 A2878 RMK AO2 PK WND 33028/0538 SLP755 P0000 60000 T10891094 11089 21089 58001 FZRANO
PAMO 110502Z AUTO 33020KT 1 1/2SM -SN BR OVC019 M09/M09 A2878 RMK AO2 PK WND 33027/0435 SLP753 P0000 T10891094 FZRANO
PAMO 110441Z AUTO 33021G27KT 1 1/4SM -SN BR OVC017 M09/M09 A2877 RMK AO2 PK WND 33027/0435 P0000 FZRANO
PAMO 110424Z AUTO 33020KT 1SM -SN BR OVC015 M09/M09 A2878 RMK AO2 PK WND 33026/0421 P0000 FZRANO
PAMO 110402Z AUTO 33019G26KT 1SM -SN BR OVC013 M09/M09 A2878 RMK AO2 PK WND 33026/0358 SLP754 P0000 T10891094 FZRANO
PAMO 110317Z AUTO 33019G25KT 1SM -SN BR FEW007 OVC013 M09/M10 A2878 RMK AO2 PK WND 33026/0250 P0000 FZRANO
PAMO 110302Z AUTO 33020KT 1 1/4SM -SN BR SCT007 OVC013 M09/M10 A2878 RMK AO2 PK WND 33026/0250 P0000 FZRANO
PAMO 110222Z AUTO 33019G25KT 1 1/4SM -SN BR BKN007 OVC017 M09/M10 A2877 RMK AO2 P0000 FZRANO
PAMO 110212Z AUTO 33021KT 3/4SM -SN BR BKN005 OVC017 M09/M09 A2877 RMK AO2 CIG 004V008 P0000 FZRANO
PAMO 110202Z AUTO 33021KT 3/4SM -SN BR SCT007 OVC019 M09/M09 A2877 RMK AO2 SLP751 P0000 T10891094 FZRANO
PAMO 110200Z AUTO 33021KT 3/4SM -SN BR SCT007 OVC019 M09/M10 A2877 RMK AO2 P0000 FZRANO
PAMO 110128Z AUTO 34018G24KT 1/2SM -SN FZFG FEW008 SCT012 OVC019 M09/M09 A2878 RMK AO2 P0000 FZRANO
PAMO 110102Z AUTO 34021G25KT 3/4SM -SN BR BKN006 OVC010 M09/M09 A2878 RMK AO2 SLP754 P0000 T10891094 FZRANO
PAMO 110050Z AUTO 34020KT 3/4SM -SN BR OVC006 M09/M09 A2878 RMK AO2 P0000 FZRANO
PAMO 110002Z AUTO 34019G26KT 3/4SM -SN BR OVC004 M08/M09 A2878 RMK AO2 PK WND 34026/0002 SLP753 P0000 60000 T10831094 11083 21139 58011 FZRANO
PAMO 102352Z AUTO 34019G26KT 3/4SM -SN BR OVC004 M08/M09 A2878 RMK AO2 PK WND 34026/2344 P0000 FZRANO
PAMO 102342Z AUTO 34020G24KT 1SM -SN BR OVC004 M08/M09 A2878 RMK AO2 P0000 FZRANO
PAMO 102322Z AUTO 34015G22KT 1 1/4SM -SN BR OVC006 M09/M09 A2878 RMK AO2 CIG 004V008 P0000 FZRANO
PAMO 102302Z AUTO 34015G20KT 3/4SM -SN BR OVC006 M09/M09 A2878 RMK AO2 SNB2235 SLP755 P0000 T10891094 FZRANO
PAMO 102253Z AUTO 34014KT 3/4SM -SN BR OVC006 M09/M10 A2879 RMK AO2 SNB35 P0000 FZRANO
PAMO 102238Z AUTO 35011KT 1SM -SN BR BKN006 OVC023 M09/M11 A2879 RMK AO2 SNB35 P0000 FZRANO
PAMO 102202Z AUTO 34013KT 1 3/4SM BR OVC023 M10/M11 A2879 RMK AO2 SLP759 T11001111 FZRANO
PAMO 102150Z AUTO 34013KT 1 3/4SM BR BKN023 M11/M11 A2879 RMK AO2 FZRANO
PAMO 102102Z AUTO 35008KT 1 3/4SM BR CLR M12/M13 A2881 RMK AO2 SLP765 60000 T11171133 53003 FZRANO
PAMO 102049Z AUTO 33009KT 1 3/4SM BR SCT018 M12/M13 A2881 RMK AO2 FZRANO
PAMO 102002Z AUTO 35008KT 1 3/4SM BR OVC020 M11/M12 A2882 RMK AO2 SLP767 T11111122 FZRANO
PAMO 101951Z AUTO 35008KT 1 3/4SM BR OVC020 M11/M12 A2882 RMK AO2 FZRANO
PAMO 101942Z AUTO 36009KT 2SM BR OVC020 M11/M13 A2882 RMK AO2 FZRANO
PAMO 101902Z AUTO 36009KT 3SM BR OVC018 M12/M13 A2881 RMK AO2 SNB18171854E1804 SLP764 P0000 T11171128 FZRANO
PAMO 101819Z AUTO 34005KT 3SM BR OVC020 M14/M15 A2880 RMK AO2 SNB1754E04 P0000 FZRANO
PAMO 101802Z AUTO 34006KT 2 1/2SM -SN BR BKN020 M14/M16 A2881 RMK AO2 SNB1754 P0000 FZRANO
PAMO 101702Z AUTO 35007KT 3SM BR CLR M14/M15 A2881 RMK AO2 SNE1636 SLP765 P0000 T11391150 FZRANO
PAMO 101652Z AUTO 34007KT 3SM BR CLR M14/M15 A2881 RMK AO2 SNE36 P0000 FZRANO
PAMO 101602Z AUTO 33006KT 2SM -SN BR FEW025 BKN031 BKN040 M14/M16 A2883 RMK AO2 SNB1526 SLP770 P0000 T11391156 FZRANO
PAMO 101535Z AUTO 34006KT 2 1/2SM -SN BR BKN047 BKN055 M14/M16 A2883 RMK AO2 SNB26 P0000 FZRANO
PAMO 101502Z AUTO 34006KT 3SM BR CLR M12/M14 A2883 RMK AO2 SLP772 60000 T11221139 56013 FZRANO
PAMO 101402Z AUTO 36010KT 3SM BR FEW018 M11/M12 A2883 RMK AO2 SLP772 T11111122 FZRANO
PAMO 101359Z AUTO 36009KT 3SM BR SCT018 M11/M12 A2883 RMK AO2 FZRANO
PAMO 101302Z AUTO 01010KT 3SM BR OVC018 M11/M12 A2885 RMK AO2 SLP777 T11111122 FZRANO
PAMO 101234Z AUTO 36008KT 3SM BR OVC016 M11/M12 A2886 RMK AO2 FZRANO
PAMO 101202Z AUTO 33005KT 3SM BR BKN014 OVC025 M11/M12 A2887 RMK AO2 SLP784 60000 T11061117 11100 21111 58016 FZRANO
PAMO 101159Z AUTO 33005KT 3SM BR BKN014 OVC025 M11/M12 A2887 RMK AO2 FZRANO
PAMO 101142Z AUTO 34006KT 3SM BR SCT010 OVC025 M11/M12 A2887 RMK AO2 FZRANO
PAMO 101127Z AUTO 36006KT 3SM BR BKN013 OVC025 M11/M12 A2888 RMK AO2 FZRANO
PAMO 101110Z AUTO 35005KT 3SM BR BKN015 OVC025 M11/M12 A2889 RMK AO2 FZRANO
PAMO 101102Z AUTO 34005KT 2 1/2SM BR OVC015 M11/M12 A2888 RMK AO2 SNB1034E1051 SLP790 P0000 T11061117 FZRANO
PAMO 101002Z AUTO 34005KT 2 1/2SM BR OVC019 M11/M12 A2890 RMK AO2 SLP795 T11111122 FZRANO
PAMO 100902Z AUTO 01005KT 2 1/2SM BR OVC019 M11/M12 A2892 RMK AO2 SNE0833 SLP800 P0000 60000 T11061117 58008 FZRANO
PAMO 100802Z AUTO 05005KT 2 1/2SM -SN BR OVC021 M11/M12 A2893 RMK AO2 SLP806 P0000 T11061117 411001106 FZRANO
PAMO 100702Z AUTO 06005KT 2 1/2SM -SN BR OVC025 M10/M12 A2895 RMK AO2 SLP811 P0000 T11001117 FZRANO
PAMO 100502Z AUTO 07005KT 2 1/2SM BR OVC027 M10/M11 A2896 RMK AO2 SNE0403B0437E0458 SLP815 P0000 T11001111 FZRANO
PAMO 100402Z AUTO 08005KT 2SM -SN BR OVC029 M10/M11 A2896 RMK AO2 SNB0332 SLP817 P0000 T11001111 FZRANO
PAMO 100302Z AUTO 09007KT 2 1/2SM BR OVC029 M10/M11 A2897 RMK AO2 SNB0234E0258 SLP819 P0000 60000 T11001111 56007 FZRANO
PAMO 100222Z AUTO 08004KT 2SM BR OVC029 M11/M12 A2897 RMK AO2 FZRANO
PAMO 100202Z AUTO 00000KT 1 1/4SM BR OVC031 M11/M12 A2897 RMK AO2 SNB0149E01 SLP820 P0000 T11061117 FZRANO
PAMO 100102Z AUTO 00000KT 1 1/2SM BR OVC033 M11/M12 A2898 RMK AO2 SNB0011E0034 SLP821 P0000 T11061122 FZRANO
PAMO 100002Z AUTO 08004KT 1 1/2SM BR OVC033 M10/M11 A2898 RMK AO2 SNE2316 SLP823 P0000 60000 T11001111 11094 21111 58004 FZRANO
PAMO 092302Z AUTO 09007KT 1 1/2SM -SN BR OVC033 M10/M11 A2899 RMK AO2 SLP827 P0000 T11001111 FZRANO
PAMO 092202Z AUTO 10004KT 1 1/4SM -SN BR OVC035 M10/M11 A2900 RMK AO2 SLP830 P0000 T11001111 FZRANO
PAMO 092102Z AUTO 08007KT 1 1/4SM -SN BR OVC035 M11/M11 A2901 RMK AO2 SLP831 P0000 60000 T11061111 51003 FZRANO
PAMO 092002Z AUTO 08009KT 1 1/2SM -SN BR OVC039 M11/M12 A2901 RMK AO2 SLP831 P0000 T11111122 FZRANO
PAMO 091902Z AUTO 09007KT 2SM -SN BR OVC033 M11/M12 A2900 RMK AO2 SNB1840 SLP830 P0000 T11111122 FZRANO